Time;durP1;ratioP1;P1;durP2;ratioP2;P2;SDS_P1;SDS_P2;PMS_P1;PMS_P2;Temp;Humidity;BMP_temperature;BMP_pressure;BME280_temperature;BME280_humidity;BME280_pressure;Samples;Min_cycle;Max_cycle;Signal;HPM_P1;HPM_P2
2023/06/07 00:00:50;;;;;;;6.75;4.47;;;12.80;99.90;;;;;;4982797;28;20069;-84
2023/06/07 00:03:16;;;;;;;6.40;4.90;;;12.70;99.90;;;;;;4982084;28;21035;-84
2023/06/07 00:05:43;;;;;;;5.30;4.80;;;12.70;99.90;;;;;;4983253;28;20061;-84
2023/06/07 00:08:09;;;;;;;5.38;4.30;;;12.70;99.90;;;;;;4982211;28;20034;-84
2023/06/07 00:10:36;;;;;;;6.22;4.25;;;12.70;99.90;;;;;;4982199;28;20030;-84
2023/06/07 00:13:02;;;;;;;5.88;4.05;;;12.70;99.90;;;;;;4983267;28;20092;-84
2023/06/07 00:15:28;;;;;;;8.52;4.60;;;12.70;99.90;;;;;;4982495;28;20046;-84
2023/06/07 00:17:54;;;;;;;6.53;4.43;;;12.70;99.90;;;;;;4984781;28;20119;-84
2023/06/07 00:20:19;;;;;;;7.85;4.63;;;12.70;99.90;;;;;;4983871;28;20022;-84
2023/06/07 00:22:47;;;;;;;5.35;4.65;;;12.60;99.90;;;;;;4983868;28;20045;-83
2023/06/07 00:25:13;;;;;;;4.68;4.10;;;12.60;99.90;;;;;;4983091;28;20030;-84
2023/06/07 00:27:38;;;;;;;6.72;4.25;;;12.60;99.90;;;;;;4983863;28;20506;-84
2023/06/07 00:30:04;;;;;;;5.60;4.00;;;12.60;99.90;;;;;;4983147;28;20080;-84
2023/06/07 00:32:31;;;;;;;6.53;4.40;;;12.60;99.90;;;;;;4981684;28;20038;-85
2023/06/07 00:34:57;;;;;;;4.60;3.83;;;12.60;99.90;;;;;;4983812;28;20049;-83
2023/06/07 00:37:22;;;;;;;5.40;4.78;;;12.50;99.90;;;;;;4982171;28;20525;-86
2023/06/07 00:39:48;;;;;;;6.07;4.60;;;12.50;99.90;;;;;;4982385;28;21129;-84
2023/06/07 00:42:13;;;;;;;7.20;4.60;;;12.40;99.90;;;;;;4984040;28;20034;-84
2023/06/07 00:44:39;;;;;;;6.32;4.75;;;12.40;99.90;;;;;;4982985;28;20213;-84
2023/06/07 00:47:04;;;;;;;7.85;4.28;;;12.40;99.90;;;;;;4981946;28;20759;-84
2023/06/07 00:49:30;;;;;;;5.15;4.40;;;12.30;99.90;;;;;;4983602;28;20038;-84
2023/06/07 00:51:57;;;;;;;7.60;4.28;;;12.30;99.90;;;;;;4984557;28;20022;-85
2023/06/07 00:54:22;;;;;;;6.03;4.53;;;12.30;99.90;;;;;;4983903;28;20043;-84
2023/06/07 00:56:49;;;;;;;4.72;4.22;;;12.30;99.90;;;;;;4982765;28;20041;-84
2023/06/07 00:59:19;;;;;;;6.25;4.47;;;12.30;99.90;;;;;;4983078;28;20034;-85
2023/06/07 01:01:48;;;;;;;6.22;4.75;;;12.30;99.90;;;;;;4981236;28;20026;-84
2023/06/07 01:04:14;;;;;;;5.05;4.30;;;12.20;99.90;;;;;;4982121;28;20462;-84
2023/06/07 01:06:39;;;;;;;4.93;4.43;;;12.20;99.90;;;;;;4981591;28;20478;-84
2023/06/07 01:09:06;;;;;;;8.40;4.60;;;12.10;99.90;;;;;;4982117;28;20089;-85
2023/06/07 01:11:34;;;;;;;5.13;4.57;;;12.10;99.90;;;;;;4982238;28;20038;-83
2023/06/07 01:14:01;;;;;;;5.63;4.30;;;12.10;99.90;;;;;;4982453;28;20111;-84
2023/06/07 01:16:26;;;;;;;5.95;4.93;;;12.00;99.90;;;;;;4981909;28;20387;-84
2023/06/07 01:18:53;;;;;;;5.35;4.35;;;12.00;99.90;;;;;;4981503;28;20045;-84
2023/06/07 01:21:19;;;;;;;8.88;4.45;;;12.00;99.90;;;;;;4983426;28;20046;-84
2023/06/07 01:23:45;;;;;;;5.40;4.18;;;12.00;99.90;;;;;;4985645;28;20631;-84
2023/06/07 01:26:11;;;;;;;4.90;4.40;;;12.00;99.90;;;;;;4982877;28;20125;-84
2023/06/07 01:28:41;;;;;;;7.28;4.72;;;11.90;99.90;;;;;;4984963;28;20042;-83
2023/06/07 01:31:07;;;;;;;7.88;4.45;;;11.90;99.90;;;;;;4986575;28;20034;-84
2023/06/07 01:33:33;;;;;;;7.18;4.65;;;11.90;99.90;;;;;;4985131;28;20042;-84
2023/06/07 01:36:00;;;;;;;7.78;4.60;;;11.90;99.90;;;;;;4984403;28;20038;-85
2023/06/07 01:38:27;;;;;;;5.47;4.65;;;11.90;99.90;;;;;;4985646;28;20034;-85
2023/06/07 01:40:53;;;;;;;6.45;4.90;;;11.80;99.90;;;;;;4986068;28;20042;-83
2023/06/07 01:43:21;;;;;;;6.43;4.90;;;11.70;99.90;;;;;;4986425;28;20027;-84
2023/06/07 01:45:47;;;;;;;6.47;4.68;;;11.70;99.90;;;;;;4985133;28;20498;-84
2023/06/07 01:48:15;;;;;;;9.60;5.07;;;11.70;99.90;;;;;;4986383;28;20160;-84
2023/06/07 01:50:40;;;;;;;8.48;5.25;;;11.70;99.90;;;;;;4984036;28;20034;-85
2023/06/07 01:53:06;;;;;;;6.50;5.43;;;11.60;99.90;;;;;;4986570;28;20038;-84
2023/06/07 01:55:32;;;;;;;8.30;5.35;;;11.60;99.90;;;;;;4983188;28;20038;-85
2023/06/07 01:58:27;;;;;;;5.95;4.85;;;11.60;99.90;;;;;;4984860;28;20116;-84
2023/06/07 02:01:16;;;;;;;6.43;5.20;;;11.60;99.90;;;;;;4984251;28;20045;-84
2023/06/07 02:03:47;;;;;;;8.57;5.50;;;11.60;99.90;;;;;;4983772;28;20037;-84
2023/06/07 02:06:20;;;;;;;5.20;4.55;;;11.50;99.90;;;;;;4983950;28;20503;-83
2023/06/07 02:08:49;;;;;;;6.60;5.38;;;11.50;99.90;;;;;;4984323;28;20129;-85
2023/06/07 02:11:16;;;;;;;5.72;4.82;;;11.50;99.90;;;;;;4983043;28;20375;-84
2023/06/07 02:13:43;;;;;;;7.50;5.45;;;11.50;99.90;;;;;;4983884;28;20149;-84
2023/06/07 02:16:10;;;;;;;9.20;6.15;;;11.40;99.90;;;;;;4981797;28;20022;-84
2023/06/07 02:18:40;;;;;;;8.82;5.88;;;11.40;99.90;;;;;;4982457;28;20062;-83
2023/06/07 02:21:10;;;;;;;5.60;4.85;;;11.40;99.90;;;;;;4981663;28;20398;-84
2023/06/07 02:23:36;;;;;;;7.22;5.60;;;11.40;99.90;;;;;;4980786;28;20136;-83
2023/06/07 02:26:02;;;;;;;7.32;5.90;;;11.40;99.90;;;;;;4977842;28;20093;-84
2023/06/07 02:28:28;;;;;;;8.52;5.78;;;11.30;99.90;;;;;;4979637;28;20034;-84
2023/06/07 02:30:55;;;;;;;5.85;5.22;;;11.30;99.90;;;;;;4984630;28;20042;-85
2023/06/07 02:33:21;;;;;;;7.97;5.85;;;11.30;99.90;;;;;;4982314;28;20450;-84
2023/06/07 02:35:47;;;;;;;8.77;5.50;;;11.30;99.90;;;;;;4984222;28;20034;-84
2023/06/07 02:38:13;;;;;;;6.03;4.70;;;11.30;99.90;;;;;;4985094;28;20048;-83
2023/06/07 02:40:39;;;;;;;6.53;5.82;;;11.30;99.90;;;;;;4984425;28;20035;-84
2023/06/07 02:43:04;;;;;;;6.45;5.32;;;11.30;99.90;;;;;;4985572;28;20473;-84
2023/06/07 02:45:30;;;;;;;7.90;6.23;;;11.30;99.90;;;;;;4984442;28;20366;-84
2023/06/07 02:47:56;;;;;;;8.80;5.60;;;11.20;99.90;;;;;;4983331;28;20518;-85
2023/06/07 02:50:22;;;;;;;8.60;6.20;;;11.20;99.90;;;;;;4984911;28;20022;-84
2023/06/07 02:52:48;;;;;;;6.95;5.97;;;11.20;99.90;;;;;;4983726;28;20065;-84
2023/06/07 02:55:13;;;;;;;7.45;5.72;;;11.20;99.90;;;;;;4983532;28;20495;-84
2023/06/07 02:57:40;;;;;;;6.32;5.60;;;11.20;99.90;;;;;;4983164;28;20085;-84
2023/06/07 03:00:11;;;;;;;7.30;5.78;;;11.20;99.90;;;;;;4983577;28;20030;-84
2023/06/07 03:02:38;;;;;;;8.03;5.60;;;11.20;99.90;;;;;;4983493;28;20073;-83
2023/06/07 03:05:04;;;;;;;8.95;5.93;;;11.10;99.90;;;;;;4983466;28;20031;-83
2023/06/07 03:07:32;;;;;;;8.05;5.22;;;11.10;99.90;;;;;;4984451;28;21405;-84
2023/06/07 03:09:58;;;;;;;8.93;5.35;;;11.10;99.90;;;;;;4984194;28;20034;-84
2023/06/07 03:12:23;;;;;;;9.73;5.25;;;11.10;99.90;;;;;;4983531;28;20034;-83
2023/06/07 03:14:49;;;;;;;8.90;5.68;;;11.10;99.90;;;;;;4982619;28;20026;-83
2023/06/07 03:17:17;;;;;;;7.38;5.30;;;11.00;99.90;;;;;;4983607;28;20038;-84
2023/06/07 03:19:42;;;;;;;7.67;5.10;;;11.00;99.90;;;;;;4984149;28;20799;-83
2023/06/07 03:22:08;;;;;;;7.97;5.03;;;11.00;99.90;;;;;;4983029;28;20058;-83
2023/06/07 03:24:36;;;;;;;7.32;5.30;;;11.00;99.90;;;;;;4983664;28;20023;-84
2023/06/07 03:27:03;;;;;;;14.97;5.27;;;11.00;99.90;;;;;;4982584;28;20602;-83
2023/06/07 03:29:30;;;;;;;6.47;5.15;;;11.00;99.90;;;;;;4982386;28;20044;-83
2023/06/07 03:31:56;;;;;;;7.88;5.78;;;10.90;99.90;;;;;;4984150;28;20097;-85
2023/06/07 03:34:22;;;;;;;6.10;5.20;;;11.00;99.90;;;;;;4982180;28;20053;-83
2023/06/07 03:36:48;;;;;;;6.53;5.50;;;11.00;99.90;;;;;;4982618;28;20552;-83
2023/06/07 03:39:13;;;;;;;9.57;5.50;;;10.90;99.90;;;;;;4984477;28;20030;-83
2023/06/07 03:41:39;;;;;;;9.00;5.87;;;10.90;99.90;;;;;;4983698;28;20037;-83
2023/06/07 03:44:04;;;;;;;6.70;5.18;;;10.90;99.90;;;;;;4983519;28;20042;-83
2023/06/07 03:46:30;;;;;;;13.30;6.13;;;10.90;99.90;;;;;;4983676;28;20041;-83
2023/06/07 03:48:55;;;;;;;7.22;4.95;;;10.90;99.90;;;;;;4982596;28;20041;-84
2023/06/07 03:51:21;;;;;;;9.17;5.20;;;10.90;99.90;;;;;;4982528;28;20477;-83
2023/06/07 03:53:47;;;;;;;6.93;5.37;;;10.90;99.90;;;;;;4982948;28;20053;-83
2023/06/07 03:56:12;;;;;;;10.47;6.20;;;10.90;99.90;;;;;;4982555;28;20027;-84
2023/06/07 03:58:38;;;;;;;8.97;5.87;;;11.00;99.90;;;;;;4984255;28;20137;-84
2023/06/07 04:01:03;;;;;;;9.80;6.72;;;11.00;99.90;;;;;;4983984;28;20018;-84
2023/06/07 04:03:32;;;;;;;12.07;7.57;;;11.00;99.90;;;;;;4980902;28;20117;-83
2023/06/07 04:05:58;;;;;;;10.50;8.05;;;11.00;99.90;;;;;;4982831;28;20041;-83
2023/06/07 04:08:24;;;;;;;9.77;7.93;;;11.00;99.90;;;;;;4983488;28;20034;-83
2023/06/07 04:10:50;;;;;;;11.63;8.65;;;11.10;99.90;;;;;;4983175;28;20108;-84
2023/06/07 04:13:16;;;;;;;9.75;7.55;;;11.10;99.90;;;;;;4983993;28;20390;-84
2023/06/07 04:15:42;;;;;;;10.07;7.60;;;11.20;99.90;;;;;;4983073;28;20038;-84
2023/06/07 04:18:08;;;;;;;11.77;7.57;;;11.20;99.90;;;;;;4980798;28;20109;-84
2023/06/07 04:20:33;;;;;;;11.50;8.07;;;11.30;99.90;;;;;;4982438;28;20125;-84
2023/06/07 04:23:00;;;;;;;10.55;8.38;;;11.40;99.90;;;;;;4983965;28;20054;-84
2023/06/07 04:25:34;;;;;;;12.10;7.43;;;11.40;99.90;;;;;;4981696;28;20034;-84
2023/06/07 04:28:00;;;;;;;9.32;6.13;;;11.40;99.90;;;;;;4983322;28;20026;-84
2023/06/07 04:30:36;;;;;;;8.40;6.63;;;11.50;99.90;;;;;;4984482;28;20128;-84
2023/06/07 04:33:09;;;;;;;7.43;6.20;;;11.50;99.90;;;;;;4983372;28;20030;-84
2023/06/07 04:35:36;;;;;;;10.38;6.18;;;11.60;99.90;;;;;;4983646;28;20145;-84
2023/06/07 04:38:01;;;;;;;8.45;6.03;;;11.70;99.90;;;;;;4984010;28;21336;-84
2023/06/07 04:40:28;;;;;;;10.13;6.28;;;11.60;99.90;;;;;;4983355;28;20026;-84
2023/06/07 04:43:05;;;;;;;9.48;5.50;;;11.70;99.90;;;;;;4984988;28;20033;-84
2023/06/07 04:45:32;;;;;;;7.15;5.35;;;11.80;99.90;;;;;;4982632;28;20050;-84
2023/06/07 04:47:58;;;;;;;6.22;5.05;;;11.80;99.90;;;;;;4984948;28;20034;-84
2023/06/07 04:50:26;;;;;;;8.75;5.18;;;11.80;99.90;;;;;;4982025;28;20029;-84
2023/06/07 04:53:00;;;;;;;10.43;6.25;;;11.90;99.90;;;;;;4983636;28;20038;-84
2023/06/07 04:55:30;;;;;;;7.15;5.72;;;11.90;99.90;;;;;;4984027;28;20037;-84
2023/06/07 04:57:56;;;;;;;7.18;5.72;;;12.00;99.90;;;;;;4986855;28;20038;-85
2023/06/07 05:00:25;;;;;;;7.72;5.97;;;12.00;99.90;;;;;;4986834;28;20022;-84
2023/06/07 05:02:52;;;;;;;7.35;5.95;;;12.10;99.90;;;;;;4986033;28;20290;-84
2023/06/07 05:05:18;;;;;;;11.55;6.18;;;12.10;99.90;;;;;;4986031;28;20569;-84
2023/06/07 05:07:44;;;;;;;8.02;6.40;;;12.30;99.90;;;;;;4984963;28;20058;-85
2023/06/07 05:10:10;;;;;;;8.10;6.10;;;12.30;99.90;;;;;;4985378;28;20035;-84
2023/06/07 05:12:35;;;;;;;9.63;6.72;;;12.40;99.90;;;;;;4987189;28;20088;-84
2023/06/07 05:15:02;;;;;;;12.13;7.03;;;12.50;99.90;;;;;;4981661;28;20539;-84
2023/06/07 05:17:28;;;;;;;9.48;7.13;;;12.60;99.90;;;;;;4983087;28;20068;-84
2023/06/07 05:19:55;;;;;;;7.10;6.35;;;12.70;99.90;;;;;;4984511;28;20060;-84
2023/06/07 05:22:21;;;;;;;11.18;7.22;;;12.80;99.90;;;;;;4983178;28;20038;-84
2023/06/07 05:24:47;;;;;;;11.27;6.90;;;12.90;99.90;;;;;;4980713;28;20038;-84
2023/06/07 05:27:14;;;;;;;7.82;6.95;;;13.00;99.90;;;;;;4982169;28;20029;-85
2023/06/07 05:29:39;;;;;;;10.98;7.25;;;13.20;99.90;;;;;;4983546;28;20693;-84
2023/06/07 05:32:05;;;;;;;9.35;7.40;;;13.20;99.90;;;;;;4982263;28;20085;-84
2023/06/07 05:34:31;;;;;;;9.93;7.50;;;13.40;99.90;;;;;;4972933;28;20034;-84
2023/06/07 05:36:58;;;;;;;8.93;7.70;;;13.50;99.90;;;;;;4973096;28;20113;-84
2023/06/07 05:39:23;;;;;;;9.02;7.47;;;13.60;99.90;;;;;;4979066;28;20046;-84
2023/06/07 05:41:50;;;;;;;9.18;7.35;;;13.80;99.90;;;;;;4981879;28;20870;-84
2023/06/07 05:44:16;;;;;;;8.27;6.68;;;13.90;99.90;;;;;;4979856;28;20585;-84
2023/06/07 05:46:41;;;;;;;10.77;7.55;;;14.10;99.90;;;;;;4977292;28;20027;-84
2023/06/07 05:49:07;;;;;;;10.27;7.80;;;14.30;99.90;;;;;;4976634;28;20034;-84
2023/06/07 05:51:32;;;;;;;10.43;7.32;;;14.40;99.90;;;;;;4975278;28;20033;-84
2023/06/07 05:53:58;;;;;;;11.20;6.57;;;14.60;99.90;;;;;;4979810;28;20035;-84
2023/06/07 05:56:24;;;;;;;10.13;7.63;;;14.80;99.90;;;;;;4976002;28;20034;-84
2023/06/07 05:58:50;;;;;;;12.15;7.68;;;14.90;99.90;;;;;;4977631;28;20046;-84
2023/06/07 06:01:17;;;;;;;8.40;7.53;;;15.10;99.90;;;;;;4976606;28;20602;-84
2023/06/07 06:03:42;;;;;;;9.15;7.88;;;15.30;99.90;;;;;;4976095;28;20530;-85
2023/06/07 06:06:16;;;;;;;11.07;7.60;;;15.40;99.90;;;;;;4975611;28;20035;-84
2023/06/07 06:08:42;;;;;;;10.98;8.13;;;15.50;99.90;;;;;;4976949;28;20743;-85
2023/06/07 06:11:13;;;;;;;11.30;8.10;;;15.60;99.90;;;;;;4980967;28;20109;-85
2023/06/07 06:13:40;;;;;;;9.13;7.57;;;15.80;99.90;;;;;;4978686;28;20037;-84
2023/06/07 06:16:06;;;;;;;9.27;7.38;;;15.90;99.90;;;;;;4979145;28;20038;-84
2023/06/07 06:18:32;;;;;;;9.85;8.35;;;16.00;99.90;;;;;;4978410;28;20167;-85
2023/06/07 06:20:58;;;;;;;9.27;8.20;;;16.20;99.90;;;;;;4980594;28;20337;-85
2023/06/07 06:23:24;;;;;;;10.35;8.88;;;16.20;99.90;;;;;;4981857;28;20022;-85
2023/06/07 06:25:50;;;;;;;10.32;8.40;;;16.30;99.90;;;;;;4977624;28;20053;-85
2023/06/07 06:28:16;;;;;;;9.82;8.45;;;16.40;99.90;;;;;;4976226;28;20947;-85
2023/06/07 06:30:42;;;;;;;11.27;9.35;;;16.40;99.90;;;;;;4981189;28;20122;-85
2023/06/07 06:33:08;;;;;;;10.07;8.50;;;16.50;99.90;;;;;;4981577;28;20037;-85
2023/06/07 06:35:33;;;;;;;9.15;7.85;;;16.60;99.90;;;;;;4981634;28;20038;-85
2023/06/07 06:37:59;;;;;;;10.68;8.82;;;16.70;99.90;;;;;;4976897;28;20348;-86
2023/06/07 06:40:26;;;;;;;11.95;8.60;;;16.80;99.90;;;;;;4979024;28;20035;-86
2023/06/07 06:42:52;;;;;;;10.40;8.43;;;16.90;99.90;;;;;;4981673;28;20042;-83
2023/06/07 06:45:18;;;;;;;9.20;7.38;;;17.00;99.90;;;;;;4976105;28;20039;-86
2023/06/07 06:47:43;;;;;;;10.30;7.90;;;17.10;99.90;;;;;;4972486;28;20026;-92
2023/06/07 06:50:11;;;;;;;8.70;7.35;;;17.20;99.90;;;;;;4979624;28;20041;-83
2023/06/07 06:52:38;;;;;;;11.75;8.05;;;17.40;99.90;;;;;;4977744;28;20109;-85
2023/06/07 06:55:04;;;;;;;10.85;7.63;;;17.50;99.90;;;;;;4979156;28;20045;-83
2023/06/07 06:57:29;;;;;;;8.90;8.00;;;17.50;99.90;;;;;;4978507;28;20046;-84
2023/06/07 06:59:55;;;;;;;9.48;7.65;;;17.50;99.90;;;;;;4976667;28;20542;-84
2023/06/07 07:02:21;;;;;;;9.63;7.72;;;17.60;99.90;;;;;;4976196;28;20735;-85
2023/06/07 07:04:47;;;;;;;9.25;8.27;;;17.50;99.90;;;;;;4976784;28;20034;-86
2023/06/07 07:07:12;;;;;;;12.65;7.93;;;17.60;99.90;;;;;;4976590;28;20026;-90
2023/06/07 07:09:38;;;;;;;11.20;7.32;;;17.60;99.90;;;;;;4979044;28;20049;-86
2023/06/07 07:12:05;;;;;;;7.85;6.40;;;17.70;99.90;;;;;;4978366;28;20033;-88
2023/06/07 07:14:30;;;;;;;8.85;7.40;;;17.80;99.90;;;;;;4978741;28;20810;-84
2023/06/07 07:16:56;;;;;;;8.23;6.90;;;17.90;99.90;;;;;;4977478;28;20061;-92
2023/06/07 07:19:21;;;;;;;7.22;6.47;;;18.00;99.90;;;;;;4979105;28;20135;-83
2023/06/07 07:21:47;;;;;;;8.32;5.63;;;18.10;99.90;;;;;;4979324;28;20053;-82
2023/06/07 07:24:13;;;;;;;11.07;8.00;;;18.20;99.90;;;;;;4979086;28;20049;-89
2023/06/07 07:26:41;;;;;;;7.85;7.05;;;18.30;99.90;;;;;;4978785;28;20126;-84
2023/06/07 07:29:06;;;;;;;10.82;8.07;;;18.40;99.90;;;;;;4976354;28;20209;-84
2023/06/07 07:31:33;;;;;;;9.15;7.55;;;18.30;99.90;;;;;;4977794;28;20038;-89
2023/06/07 07:34:03;;;;;;;7.63;6.80;;;18.40;99.90;;;;;;4979037;28;20034;-90
2023/06/07 07:36:33;;;;;;;8.60;7.40;;;18.40;99.90;;;;;;4978343;28;20030;-88
2023/06/07 07:38:59;;;;;;;8.88;6.68;;;18.50;99.90;;;;;;4978627;28;20046;-88
2023/06/07 07:41:25;;;;;;;8.05;6.70;;;18.50;99.90;;;;;;4979985;28;20030;-84
2023/06/07 07:43:51;;;;;;;7.68;6.30;;;18.60;99.90;;;;;;4979924;28;20126;-87
2023/06/07 07:46:17;;;;;;;9.98;6.93;;;18.80;99.90;;;;;;4974930;28;20035;-82
2023/06/07 07:48:43;;;;;;;7.50;6.28;;;18.80;99.90;;;;;;4977755;28;20030;-88
2023/06/07 07:51:09;;;;;;;9.65;6.82;;;18.90;99.90;;;;;;4976455;28;20499;-79
2023/06/07 07:53:34;;;;;;;6.90;5.82;;;18.90;99.90;;;;;;4976324;28;20036;-79
2023/06/07 07:56:00;;;;;;;8.00;6.03;;;19.00;99.90;;;;;;4975832;28;20030;-79
2023/06/07 07:58:26;;;;;;;6.53;5.13;;;19.10;99.90;;;;;;4975880;28;20561;-78
2023/06/07 08:00:52;;;;;;;7.53;5.38;;;19.30;99.90;;;;;;4973440;28;20030;-77
2023/06/07 08:03:18;;;;;;;8.00;5.13;;;19.50;99.90;;;;;;4974672;28;20035;-78
2023/06/07 08:05:44;;;;;;;7.40;5.60;;;19.50;99.90;;;;;;4973253;28;20027;-80
2023/06/07 08:08:09;;;;;;;8.05;5.57;;;19.50;99.90;;;;;;4974822;28;20042;-77
2023/06/07 08:10:35;;;;;;;5.97;5.38;;;19.60;99.90;;;;;;4974821;28;20015;-77
2023/06/07 08:13:01;;;;;;;7.47;5.05;;;19.80;99.90;;;;;;4975966;28;20041;-79
2023/06/07 08:15:26;;;;;;;6.40;4.00;;;19.90;99.90;;;;;;4976083;28;21526;-78
2023/06/07 08:17:52;;;;;;;6.55;4.10;;;20.10;99.90;;;;;;4977269;28;20149;-77
2023/06/07 08:20:18;;;;;;;4.68;3.53;;;20.10;99.90;;;;;;4974430;28;20025;-79
2023/06/07 08:22:43;;;;;;;6.22;4.25;;;20.10;99.90;;;;;;4975636;28;20113;-81
2023/06/07 08:25:09;;;;;;;5.97;4.30;;;20.10;99.90;;;;;;4976791;28;20022;-74
2023/06/07 08:27:35;;;;;;;7.90;4.22;;;20.20;99.90;;;;;;4976442;28;20108;-79
2023/06/07 08:30:01;;;;;;;10.05;5.13;;;20.10;99.90;;;;;;4977495;28;20038;-79
2023/06/07 08:32:27;;;;;;;6.50;5.10;;;20.00;99.90;;;;;;4975351;28;20030;-79
2023/06/07 08:34:53;;;;;;;7.38;4.93;;;19.80;99.90;;;;;;4974877;28;20035;-79
2023/06/07 08:37:18;;;;;;;6.00;4.55;;;19.70;99.90;;;;;;4976276;28;20482;-79
2023/06/07 08:39:46;;;;;;;8.93;4.60;;;19.60;99.90;;;;;;4976690;28;20045;-79
2023/06/07 08:42:13;;;;;;;6.10;4.35;;;19.50;99.90;;;;;;4976745;28;20056;-80
2023/06/07 08:44:41;;;;;;;6.00;4.25;;;19.50;99.90;;;;;;4975880;28;20034;-80
2023/06/07 08:47:11;;;;;;;6.53;4.72;;;19.50;99.90;;;;;;4975641;28;20112;-80
2023/06/07 08:49:45;;;;;;;5.15;4.00;;;19.70;99.90;;;;;;4976717;28;20105;-79
2023/06/07 08:52:11;;;;;;;6.13;4.78;;;19.80;99.90;;;;;;4976969;28;20026;-75
2023/06/07 08:54:45;;;;;;;7.80;4.55;;;20.00;99.90;;;;;;4972369;28;20932;-78
2023/06/07 08:57:15;;;;;;;5.30;3.85;;;20.00;99.90;;;;;;4973846;28;20562;-81
2023/06/07 08:59:43;;;;;;;10.52;4.63;;;19.90;99.90;;;;;;4977987;28;20822;-82
2023/06/07 09:02:09;;;;;;;5.47;4.43;;;19.90;99.90;;;;;;4977318;28;20069;-82
2023/06/07 09:04:38;;;;;;;4.38;3.80;;;20.00;99.90;;;;;;4977887;28;20121;-81
2023/06/07 09:07:06;;;;;;;5.13;3.70;;;20.10;99.90;;;;;;4978121;28;20031;-81
2023/06/07 09:09:31;;;;;;;7.35;3.90;;;20.20;99.90;;;;;;4976274;28;20046;-81
2023/06/07 09:11:57;;;;;;;6.65;4.00;;;20.40;99.90;;;;;;4978797;28;20023;-83
2023/06/07 09:14:23;;;;;;;4.63;3.83;;;20.60;99.90;;;;;;4978485;28;20038;-81
2023/06/07 09:16:53;;;;;;;7.28;4.18;;;20.80;99.90;;;;;;4977318;28;20050;-81
2023/06/07 09:19:31;;;;;;;7.43;4.50;;;20.90;99.90;;;;;;4976404;28;20818;-81
2023/06/07 09:21:57;;;;;;;4.63;3.50;;;20.90;99.90;;;;;;4978455;28;20467;-82
2023/06/07 09:24:30;;;;;;;5.13;3.20;;;21.00;99.90;;;;;;4975819;28;20038;-81
2023/06/07 09:26:56;;;;;;;5.38;3.90;;;21.10;99.90;;;;;;4978117;28;20055;-82
2023/06/07 09:29:21;;;;;;;7.40;3.30;;;21.30;99.90;;;;;;4978545;28;20034;-84
2023/06/07 09:31:47;;;;;;;8.13;3.90;;;21.40;99.90;;;;;;4980099;28;20040;-82
2023/06/07 09:34:24;;;;;;;5.75;3.53;;;21.50;99.90;;;;;;4979454;28;20089;-82
2023/06/07 09:36:53;;;;;;;4.30;3.15;;;21.70;99.90;;;;;;4977302;28;20062;-82
2023/06/07 09:39:29;;;;;;;6.78;3.20;;;21.90;99.90;;;;;;4977062;28;20049;-82
2023/06/07 09:41:56;;;;;;;8.27;3.75;;;22.30;99.90;;;;;;4979963;28;20062;-82
2023/06/07 09:44:27;;;;;;;5.63;3.97;;;22.60;99.90;;;;;;4981668;28;20029;-82
2023/06/07 09:46:54;;;;;;;6.85;3.38;;;22.60;99.90;;;;;;4980808;28;20061;-81
2023/06/07 09:49:34;;;;;;;7.60;3.30;;;22.80;99.90;;;;;;4979870;28;20994;-82
2023/06/07 09:52:04;;;;;;;6.50;3.65;;;22.90;99.90;;;;;;4978996;28;20039;-81
2023/06/07 09:54:59;;;;;;;5.55;3.28;;;23.10;99.90;;;;;;4981372;28;20057;-81
2023/06/07 09:57:25;;;;;;;6.57;3.42;;;23.30;99.90;;;;;;4966584;28;20720;-83
2023/06/07 10:00:21;;;;;;;5.13;3.20;;;23.60;99.90;;;;;;4983723;28;20050;-82
2023/06/07 10:02:49;;;;;;;4.57;2.95;;;23.80;99.90;;;;;;4979539;28;20034;-78
2023/06/07 10:05:16;;;;;;;4.82;2.80;;;24.10;99.90;;;;;;4977440;28;20117;-79
2023/06/07 10:07:49;;;;;;;6.47;3.28;;;24.40;99.90;;;;;;4978556;28;20037;-78
2023/06/07 10:10:18;;;;;;;5.22;2.90;;;24.60;99.90;;;;;;4978527;28;20368;-78
2023/06/07 10:12:46;;;;;;;6.18;3.67;;;24.70;99.90;;;;;;4979395;28;20573;-78
2023/06/07 10:15:18;;;;;;;4.88;3.20;;;24.80;99.90;;;;;;4977907;28;20085;-78
2023/06/07 10:18:21;;;;;;;6.82;2.85;;;25.00;99.90;;;;;;4978541;28;20390;-78
2023/06/07 10:21:11;;;;;;;5.05;3.13;;;24.80;99.90;;;;;;4979303;28;20034;-78
2023/06/07 10:23:58;;;;;;;3.88;3.10;;;25.00;99.90;;;;;;4973182;28;21415;-81
2023/06/07 10:26:31;;;;;;;5.10;3.20;;;25.30;99.90;;;;;;4977970;28;20037;-79
2023/06/07 10:29:17;;;;;;;5.82;3.10;;;25.60;99.90;;;;;;4979678;28;20046;-80
2023/06/07 10:31:51;;;;;;;4.13;2.60;;;25.90;99.90;;;;;;4980064;28;20077;-82
2023/06/07 10:34:18;;;;;;;8.30;3.25;;;25.90;99.90;;;;;;4980688;28;20030;-80
2023/06/07 10:36:43;;;;;;;5.65;3.50;;;26.10;99.90;;;;;;4982001;28;20037;-79
2023/06/07 10:39:11;;;;;;;3.70;2.65;;;26.10;99.90;;;;;;4979353;28;20042;-85
2023/06/07 10:41:37;;;;;;;7.20;3.22;;;26.10;99.90;;;;;;4980921;28;20034;-79
2023/06/07 10:44:03;;;;;;;8.27;2.97;;;26.40;99.90;;;;;;4980995;28;20040;-79
2023/06/07 10:46:29;;;;;;;5.90;3.35;;;26.50;99.90;;;;;;4976468;28;20434;-79
2023/06/07 10:48:56;;;;;;;3.58;2.83;;;26.30;99.90;;;;;;4978960;28;20027;-79
2023/06/07 10:51:51;;;;;;;3.97;2.60;;;26.70;99.90;;;;;;4980424;28;20085;-79
2023/06/07 10:54:31;;;;;;;4.45;2.92;;;26.70;99.90;;;;;;4980790;28;20062;-80
2023/06/07 10:56:57;;;;;;;6.10;3.53;;;26.50;99.90;;;;;;4978672;28;20041;-80
2023/06/07 10:59:23;;;;;;;5.25;3.10;;;26.50;99.90;;;;;;4982378;28;20433;-80
2023/06/07 11:01:52;;;;;;;4.28;3.15;;;26.50;99.90;;;;;;4980854;28;20029;-80
2023/06/07 11:04:51;;;;;;;8.10;2.72;;;26.50;99.90;;;;;;4979884;28;20042;-80
2023/06/07 11:07:18;;;;;;;3.08;2.60;;;26.60;99.30;;;;;;4978835;28;20125;-80
2023/06/07 11:09:48;;;;;;;9.20;3.15;;;26.60;99.50;;;;;;4978297;28;20029;-78
2023/06/07 11:12:36;;;;;;;5.85;3.22;;;26.60;99.00;;;;;;4981164;28;20080;-79
2023/06/07 11:15:17;;;;;;;6.68;3.15;;;26.90;97.60;;;;;;4979877;28;20516;-80
2023/06/07 11:17:49;;;;;;;4.97;2.65;;;27.00;96.40;;;;;;4979747;28;20034;-79
2023/06/07 11:20:35;;;;;;;4.97;2.60;;;27.00;95.40;;;;;;4980000;28;20038;-80
2023/06/07 11:23:21;;;;;;;4.47;2.90;;;27.00;95.90;;;;;;4980319;28;20470;-78
2023/06/07 11:26:08;;;;;;;6.10;2.92;;;26.80;95.00;;;;;;4979997;28;20085;-79
2023/06/07 11:28:37;;;;;;;4.80;2.90;;;26.80;96.40;;;;;;4980633;28;20116;-80
2023/06/07 11:31:03;;;;;;;4.75;2.88;;;26.90;95.90;;;;;;4980113;28;20737;-79
2023/06/07 11:33:30;;;;;;;4.47;2.65;;;27.20;95.80;;;;;;4980736;28;20030;-84
2023/06/07 11:35:56;;;;;;;4.25;2.88;;;27.40;95.20;;;;;;4980738;28;20062;-80
2023/06/07 11:38:23;;;;;;;3.28;2.60;;;27.80;94.10;;;;;;4980436;28;20045;-79
2023/06/07 11:40:50;;;;;;;4.25;2.92;;;27.90;93.40;;;;;;4978647;28;20034;-75
2023/06/07 11:43:21;;;;;;;4.25;2.95;;;27.70;92.50;;;;;;4980466;28;20061;-79
2023/06/07 11:45:46;;;;;;;4.10;3.28;;;27.70;94.30;;;;;;4980525;28;20022;-79
2023/06/07 11:48:12;;;;;;;4.82;2.83;;;27.80;92.60;;;;;;4978386;28;20027;-79
2023/06/07 11:50:39;;;;;;;4.60;2.90;;;27.70;95.00;;;;;;4978423;28;20105;-81
2023/06/07 11:53:10;;;;;;;7.30;2.50;;;27.80;92.80;;;;;;4977626;28;20034;-80
2023/06/07 11:55:37;;;;;;;5.07;2.67;;;27.90;92.70;;;;;;4970509;28;20030;-80
2023/06/07 11:58:04;;;;;;;5.47;2.63;;;28.00;93.10;;;;;;4976902;28;20047;-81
2023/06/07 12:00:36;;;;;;;3.97;2.80;;;28.10;90.90;;;;;;4974097;28;20026;-80
2023/06/07 12:03:05;;;;;;;5.85;2.63;;;27.80;91.30;;;;;;4977013;28;20051;-80
2023/06/07 12:05:31;;;;;;;5.20;3.08;;;27.60;90.90;;;;;;4977048;28;20050;-79
2023/06/07 12:08:30;;;;;;;5.35;2.63;;;27.70;90.80;;;;;;4978203;28;20407;-78
2023/06/07 12:10:55;;;;;;;5.13;2.78;;;27.90;91.30;;;;;;4955354;28;20042;-76
2023/06/07 12:13:22;;;;;;;4.60;3.05;;;28.00;90.10;;;;;;4977539;28;20088;-80
2023/06/07 12:15:55;;;;;;;8.50;2.78;;;28.30;90.10;;;;;;4972691;28;20838;-79
2023/06/07 12:18:25;;;;;;;6.07;3.20;;;28.10;87.60;;;;;;4976790;28;20034;-80
2023/06/07 12:21:07;;;;;;;3.97;2.60;;;27.80;89.00;;;;;;4979507;28;20257;-80
2023/06/07 12:23:35;;;;;;;3.42;2.60;;;27.50;91.50;;;;;;4978333;28;21415;-80
2023/06/07 12:26:12;;;;;;;3.80;2.58;;;27.90;89.10;;;;;;4974923;28;20122;-84
2023/06/07 12:28:40;;;;;;;5.82;2.95;;;28.00;90.10;;;;;;4974939;28;20593;-80
2023/06/07 12:31:24;;;;;;;4.47;2.55;;;28.30;90.20;;;;;;4974608;28;20091;-80
2023/06/07 12:34:11;;;;;;;5.38;3.08;;;28.60;86.20;;;;;;4976688;28;20035;-80
2023/06/07 12:36:40;;;;;;;4.75;3.22;;;28.60;85.90;;;;;;4977906;28;20062;-80
2023/06/07 12:39:09;;;;;;;3.80;2.53;;;28.90;87.10;;;;;;4976484;28;20176;-79
2023/06/07 12:41:34;;;;;;;3.85;2.60;;;29.10;87.40;;;;;;4977102;28;20942;-79
2023/06/07 12:44:03;;;;;;;4.40;2.70;;;29.00;83.40;;;;;;4978068;28;20148;-80
2023/06/07 12:46:30;;;;;;;4.82;2.65;;;28.80;82.80;;;;;;4976477;28;20027;-80
2023/06/07 12:48:55;;;;;;;4.25;3.10;;;28.90;81.70;;;;;;4976544;28;20026;-80
2023/06/07 12:51:21;;;;;;;4.85;2.75;;;29.00;78.70;;;;;;4976817;28;21465;-81